Dati Storici

Data ora Umidita' aria (%) Temperatura aria (°C) Rad globale (W/m²) Gonioanemometro (°) Tacoanemometro (m/s) Pioggia (mm)
24-06-2020 12:10 56.1 % 26.183 70.229 2.723 0 0
24-06-2020 12:00 58.2 % 25.558 101.011 1.845 0 0
24-06-2020 11:50 58.5 % 25.528 128.789 4.003 0 0
24-06-2020 11:40 59.3 % 25.345 134.113 1.803 0 0
24-06-2020 11:30 57.6 % 25.78 82.099 2.203 0 0
24-06-2020 11:20 55.9 % 25.71 89.742 2.174 0 0
24-06-2020 11:10 55.2 % 26.489 109.534 2.709 0 0
24-06-2020 11:00 56.1 % 26.271 71.698 0.818 0 0
24-06-2020 10:50 55 % 25.975 8.799 -0.025 0 0
24-06-2020 10:40 53.2 % 25.922 54.212 3.01 0 0
24-06-2020 10:30 55.8 % 25.89 86.38 0.728 0 0
24-06-2020 10:20 57.3 % 25.736 122.029 2.134 0 0
24-06-2020 10:10 58 % 25.46 74.046 0.946 0 0
24-06-2020 10:00 57.4 % 25.36 122.81 1.668 0 0
24-06-2020 09:50 57.5 % 25.651 85.409 1.614 0 0
24-06-2020 09:40 55.3 % 25.825 134.46 1.092 0 0
24-06-2020 09:30 53.8 % 26.24 104.66 1.691 0 0
24-06-2020 09:20 53.5 % 26.228 118.866 1.924 0 0
24-06-2020 09:10 55.8 % 25.786 75.757 0.847 0 0
24-06-2020 09:00 57.6 % 25.557 103.882 1.145 0 0

I dati sono presentati in modo automatico a scopo informativo. In seguito a verifica i dati possono subire modifiche o essere invalidati e non riportati negli archivi definitivi.